Time;durP1;ratioP1;P1;durP2;ratioP2;P2;SDS_P1;SDS_P2;PMS_P1;PMS_P2;Temp;Humidity;BMP_temperature;BMP_pressure;BME280_temperature;BME280_humidity;BME280_pressure;Samples;Min_cycle;Max_cycle;Signal;HPM_P1;HPM_P2
2022/10/03 00:01:24;;;;;;;8.93;3.45;;;;;;;13.94;63.18;102511.50;5082906;28;20044;-59
2022/10/03 00:04:06;;;;;;;7.43;2.60;;;;;;;13.93;63.01;102511.72;5072493;28;20048;-59
2022/10/03 00:06:50;;;;;;;8.05;3.40;;;;;;;13.92;63.15;102516.28;5082997;28;20056;-59
2022/10/03 00:09:43;;;;;;;11.23;3.55;;;;;;;13.91;63.16;102509.22;5081801;28;20521;-60
2022/10/03 00:12:20;;;;;;;10.65;3.13;;;;;;;13.82;63.23;102504.22;5081589;28;20067;-59
2022/10/03 00:14:59;;;;;;;8.88;3.20;;;;;;;13.88;62.88;102515.03;5081298;28;20049;-59
2022/10/03 00:17:37;;;;;;;9.45;3.50;;;;;;;13.88;62.80;102514.19;5078576;28;20048;-59
2022/10/03 00:20:14;;;;;;;10.15;3.17;;;;;;;13.88;62.85;102508.78;5081717;28;20060;-59
2022/10/03 00:22:48;;;;;;;8.52;3.83;;;;;;;13.87;62.92;102510.66;5082199;28;20131;-59
2022/10/03 00:25:33;;;;;;;9.25;3.22;;;;;;;13.84;62.67;102512.97;5083159;28;20663;-59
2022/10/03 00:28:18;;;;;;;11.90;3.05;;;;;;;13.77;63.12;102512.09;5081205;28;20072;-59
2022/10/03 00:31:02;;;;;;;10.05;3.28;;;;;;;13.82;62.93;102521.28;5070371;28;20088;-59
2022/10/03 00:33:38;;;;;;;6.38;2.75;;;;;;;13.81;62.67;102521.47;5076484;28;20041;-59
2022/10/03 00:36:13;;;;;;;15.23;4.07;;;;;;;13.81;63.18;102521.47;5083283;28;20058;-59
2022/10/03 00:39:22;;;;;;;8.20;2.50;;;;;;;13.78;62.96;102528.13;5074943;28;20054;-59
2022/10/03 00:42:16;;;;;;;7.03;3.00;;;;;;;13.76;62.97;102530.19;5033806;28;20053;-59
2022/10/03 00:45:12;;;;;;;5.88;2.72;;;;;;;13.74;62.90;102539.53;5036616;28;20046;-59
2022/10/03 00:48:04;;;;;;;8.50;3.20;;;;;;;13.73;62.77;102538.69;5038245;28;20053;-59
2022/10/03 00:51:00;;;;;;;7.70;2.72;;;;;;;13.73;62.57;102535.16;5039883;28;20052;-59
2022/10/03 00:53:42;;;;;;;6.40;3.03;;;;;;;13.72;62.87;102537.03;5031551;28;20046;-59
2022/10/03 00:56:35;;;;;;;9.13;2.85;;;;;;;13.70;63.03;102543.66;5033288;28;20046;-59
2022/10/03 00:59:25;;;;;;;9.40;2.85;;;;;;;13.68;63.09;102546.56;5040169;28;20049;-59
2022/10/03 01:01:53;;;;;;;7.40;2.60;;;;;;;13.66;62.63;102541.38;5028419;28;20065;-59
2022/10/03 01:04:44;;;;;;;6.80;3.30;;;;;;;13.66;62.96;102549.47;5039955;28;20053;-59
2022/10/03 01:07:29;;;;;;;8.32;3.08;;;;;;;13.65;62.87;102549.66;5039774;28;20049;-58
2022/10/03 01:10:13;;;;;;;6.80;2.83;;;;;;;13.63;62.99;102557.16;5032426;28;20053;-59
2022/10/03 01:12:57;;;;;;;12.15;3.22;;;;;;;13.62;62.80;102559.00;5036165;28;20080;-59
2022/10/03 01:15:38;;;;;;;9.23;2.90;;;;;;;13.61;62.83;102561.91;5035992;28;20045;-60
2022/10/03 01:18:19;;;;;;;10.13;3.35;;;;;;;13.60;62.36;102571.06;5071474;28;20056;-59
2022/10/03 01:20:58;;;;;;;10.30;3.08;;;;;;;13.58;62.77;102568.56;5082248;28;20060;-59
2022/10/03 01:23:55;;;;;;;9.30;2.90;;;;;;;13.57;62.72;102571.44;5077259;28;20051;-59
2022/10/03 01:26:47;;;;;;;8.13;2.95;;;;;;;13.56;62.80;102567.91;5078086;28;20052;-59
2022/10/03 01:32:14;;;;;;;8.70;2.80;;;;;;;13.51;62.59;102569.53;5082033;28;20044;-59
2022/10/03 01:34:49;;;;;;;8.00;2.83;;;;;;;13.51;62.32;102572.25;5077160;28;20049;-59
2022/10/03 01:37:23;;;;;;;7.75;2.72;;;;;;;13.49;62.78;102568.91;5080692;28;20063;-59
2022/10/03 01:39:59;;;;;;;5.65;2.58;;;;;;;13.48;62.64;102561.84;5081072;28;20040;-59
2022/10/03 01:42:40;;;;;;;8.70;2.97;;;;;;;13.48;62.41;102567.25;5081880;28;20049;-59
2022/10/03 01:45:27;;;;;;;7.28;2.70;;;;;;;13.47;62.31;102571.81;5081148;28;20413;-59
2022/10/03 01:48:00;;;;;;;;;;;;;;;13.45;62.55;102575.75;5085262;28;20048;-59
2022/10/03 01:50:35;;;;;;;7.78;2.80;;;;;;;13.42;62.42;102576.97;5080906;28;19921;-59
2022/10/03 01:53:12;;;;;;;7.78;3.22;;;;;;;13.44;62.53;102579.47;5080916;28;20145;-59
2022/10/03 01:55:54;;;;;;;7.75;2.60;;;;;;;13.42;62.63;102576.13;5087394;28;20072;-59
2022/10/03 01:58:27;;;;;;;10.35;2.53;;;;;;;13.28;62.81;102553.63;5076591;28;20108;-59
2022/10/03 02:01:06;;;;;;;5.35;2.72;;;;;;;13.38;62.74;102574.88;5083427;28;20068;-59
2022/10/03 02:03:38;;;;;;;9.75;3.60;;;;;;;13.39;62.57;102573.84;5069059;28;20075;-59
2022/10/03 02:06:19;;;;;;;8.98;3.50;;;;;;;13.30;62.51;102559.66;5083431;28;20048;-59
2022/10/03 02:08:55;;;;;;;7.57;2.70;;;;;;;13.36;62.49;102585.88;5085479;28;20059;-59
2022/10/03 02:11:31;;;;;;;10.85;3.17;;;;;;;13.35;62.22;102582.34;5083970;28;20377;-59
2022/10/03 02:14:12;;;;;;;7.78;2.70;;;;;;;13.34;62.32;102583.38;5081455;28;20044;-59
2022/10/03 02:16:44;;;;;;;7.68;2.97;;;;;;;13.32;62.27;102580.03;5074976;28;20059;-59
2022/10/03 02:19:20;;;;;;;7.03;2.88;;;;;;;13.33;62.47;102580.88;5078488;28;20041;-59
2022/10/03 02:21:50;;;;;;;6.05;2.60;;;;;;;13.33;62.39;102578.16;5083958;28;20056;-59
2022/10/03 02:24:29;;;;;;;8.63;2.72;;;;;;;13.32;62.24;102579.19;5077225;28;20049;-59
2022/10/03 02:27:20;;;;;;;9.45;2.60;;;;;;;13.30;62.52;102582.09;5081617;28;20056;-59
2022/10/03 02:30:08;;;;;;;9.63;3.33;;;;;;;13.29;62.42;102579.59;5075703;28;20045;-59
2022/10/03 02:33:02;;;;;;;6.45;2.45;;;;;;;13.28;62.21;102573.34;5074686;28;20163;-59
2022/10/03 02:36:17;;;;;;;6.78;2.55;;;;;;;13.26;62.32;102575.41;5083058;28;20052;-59
2022/10/03 02:39:03;;;;;;;10.02;2.97;;;;;;;13.17;62.48;102563.09;5074471;28;20059;-60
2022/10/03 02:41:56;;;;;;;8.95;3.28;;;;;;;13.22;62.20;102574.16;5083996;28;20044;-59
2022/10/03 02:45:19;;;;;;;6.57;2.42;;;;;;;13.20;62.61;102583.47;5079984;28;20041;-59
2022/10/03 02:48:26;;;;;;;6.55;2.55;;;;;;;13.20;62.28;102580.78;5043222;28;20049;-59
2022/10/03 02:51:27;;;;;;;7.82;2.42;;;;;;;13.18;62.17;102578.28;5040669;28;20057;-59
2022/10/03 02:54:40;;;;;;;11.65;4.18;;;;;;;13.17;61.99;102584.69;5036638;28;20052;-59
2022/10/03 02:57:27;;;;;;;6.35;2.55;;;;;;;13.16;61.95;102579.47;4983589;28;20059;-59
2022/10/03 03:00:07;;;;;;;26.25;4.32;;;;;;;13.14;62.20;102579.66;4984289;28;20088;-59
2022/10/03 03:03:05;;;;;;;8.52;4.05;;;;;;;13.12;62.37;102579.03;4982974;28;20057;-59
2022/10/03 03:06:19;;;;;;;8.65;3.33;;;;;;;13.11;62.14;102580.06;4976894;28;20059;-59
2022/10/03 03:09:11;;;;;;;8.13;3.72;;;;;;;13.10;62.00;102577.53;4978951;28;20051;-59
2022/10/03 03:11:58;;;;;;;7.22;2.85;;;;;;;13.09;61.97;102575.88;4979493;28;20046;-59
2022/10/03 03:15:01;;;;;;;6.35;2.65;;;;;;;13.07;61.88;102570.69;4975338;28;20061;-61
2022/10/03 03:17:35;;;;;;;5.72;2.95;;;;;;;13.06;61.94;102581.66;4984752;28;20589;-59
2022/10/03 03:20:31;;;;;;;12.45;2.88;;;;;;;13.03;62.10;102583.72;5021212;28;20060;-59
2022/10/03 03:23:18;;;;;;;4.50;2.67;;;;;;;13.02;61.95;102583.94;5010568;28;20128;-59
2022/10/03 03:26:04;;;;;;;6.25;2.28;;;;;;;13.01;62.25;102591.19;5020361;28;20065;-59
2022/10/03 03:28:46;;;;;;;8.68;2.80;;;;;;;13.01;62.32;102588.50;5015771;28;20058;-59
2022/10/03 03:31:17;;;;;;;6.82;2.97;;;;;;;13.01;62.15;102593.06;5015791;28;20038;-59
2022/10/03 03:33:59;;;;;;;6.28;2.85;;;;;;;12.99;61.74;102587.84;5068380;28;20048;-59
2022/10/03 03:36:34;;;;;;;8.98;2.90;;;;;;;12.98;61.71;102594.28;5085340;28;20045;-59
2022/10/03 03:39:17;;;;;;;6.13;2.88;;;;;;;12.97;62.00;102592.59;5073883;28;20049;-59
2022/10/03 03:42:11;;;;;;;10.38;2.90;;;;;;;12.96;61.79;102592.81;5081372;28;20130;-59
2022/10/03 03:45:10;;;;;;;11.05;2.60;;;;;;;12.94;61.94;102592.16;5076852;28;20051;-59
2022/10/03 03:47:55;;;;;;;9.25;2.83;;;;;;;12.93;61.66;102596.72;5082280;28;20056;-60
2022/10/03 03:50:34;;;;;;;10.43;3.85;;;;;;;12.93;62.09;102595.88;5083276;28;20047;-60
2022/10/03 03:53:22;;;;;;;8.70;2.92;;;;;;;12.93;61.86;102598.59;5087295;28;20051;-60
2022/10/03 03:56:05;;;;;;;6.90;3.15;;;;;;;12.91;61.77;102592.56;5084700;28;20431;-60
2022/10/03 03:58:40;;;;;;;6.93;2.65;;;;;;;12.92;61.72;102602.31;5073791;28;20049;-59
2022/10/03 04:01:36;;;;;;;5.88;2.70;;;;;;;12.91;61.80;102597.94;5073627;28;20077;-59
2022/10/03 04:04:19;;;;;;;7.15;2.80;;;;;;;12.89;61.72;102592.75;5081566;28;20066;-60
2022/10/03 04:06:57;;;;;;;8.45;2.55;;;;;;;12.88;61.43;102604.56;5069680;28;20098;-59
2022/10/03 04:09:43;;;;;;;7.38;2.65;;;;;;;12.85;61.48;102594.16;5071644;28;20052;-59
2022/10/03 04:12:24;;;;;;;6.97;2.75;;;;;;;12.83;61.66;102598.09;5075731;28;20072;-59
2022/10/03 04:15:12;;;;;;;9.18;2.35;;;;;;;12.83;61.98;102604.31;5077595;28;20053;-59
2022/10/03 04:21:00;;;;;;;7.40;2.88;;;;;;;12.82;61.47;102604.50;5058314;28;20045;-59
2022/10/03 04:23:48;;;;;;;9.68;3.15;;;;;;;12.81;61.99;102603.69;5056381;28;20498;-59
2022/10/03 04:26:30;;;;;;;7.47;2.67;;;;;;;12.79;61.74;102603.03;5051227;28;20140;-60
2022/10/03 04:29:23;;;;;;;7.82;3.05;;;;;;;12.77;61.81;102610.47;5053019;28;20048;-59
2022/10/03 04:32:06;;;;;;;8.02;2.65;;;;;;;12.77;61.63;102612.34;5054645;28;20067;-59
2022/10/03 04:34:49;;;;;;;4.78;2.17;;;;;;;12.76;61.52;102614.22;5057241;28;20060;-59
2022/10/03 04:37:34;;;;;;;4.25;2.50;;;;;;;12.75;61.79;102612.53;5061172;28;20088;-59
2022/10/03 04:40:23;;;;;;;8.35;2.65;;;;;;;12.73;61.94;102614.59;5060398;28;20049;-60
2022/10/03 04:43:03;;;;;;;6.70;3.13;;;;;;;12.73;61.48;102611.06;5049046;28;20045;-59
2022/10/03 04:45:54;;;;;;;5.97;2.10;;;;;;;12.71;61.48;102605.84;5054659;28;20072;-60
2022/10/03 04:48:37;;;;;;;10.50;3.47;;;;;;;12.70;61.62;102607.72;5059874;28;20049;-59
2022/10/03 04:51:14;;;;;;;9.65;3.10;;;;;;;12.70;61.71;102607.72;5058553;28;20083;-59
2022/10/03 04:53:50;;;;;;;6.47;2.70;;;;;;;12.67;61.71;102602.72;5057235;28;20060;-59
2022/10/03 04:56:33;;;;;;;7.88;3.35;;;;;;;12.67;61.53;102605.41;5067616;28;20048;-60
2022/10/03 04:59:09;;;;;;;5.65;2.50;;;;;;;12.66;61.85;102608.31;5081201;28;20408;-60
2022/10/03 05:01:46;;;;;;;8.07;2.38;;;;;;;12.57;61.67;102598.66;5077591;28;20511;-59
2022/10/03 05:04:26;;;;;;;6.63;2.85;;;;;;;12.63;61.87;102606.00;5081756;28;20067;-58
2022/10/03 05:07:06;;;;;;;7.53;2.47;;;;;;;12.61;61.38;102611.56;5078736;28;20053;-59
2022/10/03 05:09:42;;;;;;;7.50;2.50;;;;;;;12.49;61.41;102593.41;5077916;28;20049;-59
2022/10/03 05:12:21;;;;;;;7.70;3.35;;;;;;;12.62;61.94;102621.34;5076453;28;20140;-59
2022/10/03 05:15:08;;;;;;;8.20;2.70;;;;;;;12.60;61.70;102614.47;5074902;28;20045;-60
2022/10/03 05:17:46;;;;;;;8.00;2.58;;;;;;;12.58;61.59;102617.34;5081788;28;20051;-60
2022/10/03 05:20:37;;;;;;;8.20;2.67;;;;;;;12.57;61.98;102618.38;5081620;28;20052;-59
2022/10/03 05:23:28;;;;;;;6.03;2.63;;;;;;;12.57;61.86;102626.47;5086055;28;20131;-59
2022/10/03 05:26:05;;;;;;;6.85;2.45;;;;;;;12.55;61.80;102627.69;5085000;28;20049;-60
2022/10/03 05:29:02;;;;;;;10.40;2.38;;;;;;;12.54;61.89;102628.72;5085041;28;20040;-63
2022/10/03 05:31:44;;;;;;;7.05;2.72;;;;;;;12.53;61.80;102635.13;5087237;28;20040;-59
2022/10/03 05:34:22;;;;;;;7.35;2.38;;;;;;;12.53;62.08;102632.44;5083670;28;20048;-59
2022/10/03 05:37:07;;;;;;;12.13;4.45;;;;;;;12.53;61.76;102629.75;5083633;28;20373;-58
2022/10/03 05:39:42;;;;;;;6.03;2.63;;;;;;;12.47;62.03;102630.50;5081202;28;20055;-60
2022/10/03 05:42:34;;;;;;;5.60;2.60;;;;;;;12.51;61.86;102643.41;5085527;28;20052;-58
2022/10/03 05:45:06;;;;;;;5.78;2.35;;;;;;;12.50;62.29;102644.44;4374363;28;10000851;-58
2022/10/03 05:47:48;;;;;;;8.13;3.42;;;;;;;12.50;62.23;102649.00;5082224;28;20465;-57
2022/10/03 05:50:41;;;;;;;8.68;3.67;;;;;;;12.50;62.06;102643.59;5080977;28;20060;-59
2022/10/03 05:53:26;;;;;;;10.48;2.95;;;;;;;12.50;62.15;102644.44;5076346;28;20055;-58
2022/10/03 05:56:05;;;;;;;7.88;2.67;;;;;;;12.49;61.89;102652.72;5079504;28;20490;-59
2022/10/03 05:59:32;;;;;;;8.43;3.63;;;;;;;12.50;61.90;102646.31;5076721;28;20052;-58
2022/10/03 06:02:31;;;;;;;6.85;2.95;;;;;;;12.49;62.14;102650.88;4999387;28;20046;-58
2022/10/03 06:05:22;;;;;;;5.85;2.80;;;;;;;12.48;61.88;102645.66;4992212;28;20050;-58
2022/10/03 06:08:19;;;;;;;8.82;3.60;;;;;;;12.45;62.07;102660.34;4993005;28;20050;-58
2022/10/03 06:10:54;;;;;;;5.82;2.67;;;;;;;12.44;61.92;102666.78;4979153;28;20058;-58
2022/10/03 06:13:38;;;;;;;6.00;2.22;;;;;;;12.45;62.04;102668.44;4997774;28;20050;-58
2022/10/03 06:16:21;;;;;;;5.13;2.55;;;;;;;12.34;61.99;102645.50;5000513;28;20072;-58
2022/10/03 06:19:13;;;;;;;8.18;2.83;;;;;;;12.44;62.42;102671.34;4996629;28;20047;-59
2022/10/03 06:22:32;;;;;;;6.22;3.00;;;;;;;12.44;62.48;102661.38;4995972;28;20492;-58
2022/10/03 06:25:27;;;;;;;6.35;2.70;;;;;;;12.33;62.21;102649.22;4989399;28;20062;-58
2022/10/03 06:28:35;;;;;;;7.57;2.65;;;;;;;12.41;62.52;102667.16;5000588;28;20057;-59
2022/10/03 06:31:13;;;;;;;;;;;;;;;12.41;62.28;102666.31;4998411;28;20208;-58
2022/10/03 06:34:07;;;;;;;6.10;2.70;;;;;;;12.41;62.47;102675.25;5076822;28;19924;-58
2022/10/03 06:36:54;;;;;;;8.50;3.55;;;;;;;12.42;62.39;102678.78;5080382;28;20079;-58
2022/10/03 06:40:24;;;;;;;6.55;3.00;;;;;;;12.40;62.53;102676.28;5078363;28;20063;-58
2022/10/03 06:43:18;;;;;;;7.68;2.80;;;;;;;12.38;62.70;102675.63;4999039;28;20050;-58
2022/10/03 06:46:18;;;;;;;7.20;2.75;;;;;;;12.38;62.91;102673.75;4996161;28;20058;-58
2022/10/03 06:49:21;;;;;;;8.23;3.42;;;;;;;12.37;62.94;102673.94;4989756;28;20054;-58
2022/10/03 06:52:40;;;;;;;6.38;2.97;;;;;;;12.37;62.56;102676.66;4998008;28;20057;-58
2022/10/03 06:55:33;;;;;;;9.48;3.03;;;;;;;12.35;62.78;102671.44;4992570;28;20091;-58
2022/10/03 06:58:24;;;;;;;5.75;3.53;;;;;;;12.36;63.13;102683.06;4995422;28;20166;-60
2022/10/03 07:00:59;;;;;;;8.18;3.00;;;;;;;12.29;62.82;102671.38;4992741;28;20058;-58
2022/10/03 07:03:47;;;;;;;8.25;2.92;;;;;;;12.34;63.05;102680.56;4990217;28;20046;-59
2022/10/03 07:06:39;;;;;;;7.85;3.05;;;;;;;12.34;62.71;102687.81;4997269;28;20058;-58
2022/10/03 07:09:52;;;;;;;9.25;2.95;;;;;;;12.34;63.11;102683.25;4993269;28;20054;-59
2022/10/03 07:12:59;;;;;;;7.28;2.53;;;;;;;12.34;63.25;102685.13;4939993;29;20154;-59
2022/10/03 07:15:44;;;;;;;11.10;3.25;;;;;;;12.35;63.09;102684.09;4955403;28;20180;-59
2022/10/03 07:19:01;;;;;;;6.95;3.00;;;;;;;12.35;63.33;102686.78;4954083;28;20056;-59
2022/10/03 07:22:17;;;;;;;10.63;3.40;;;;;;;12.37;63.20;102690.13;4957956;29;20502;-59
2022/10/03 07:25:17;;;;;;;7.65;2.90;;;;;;;12.37;63.64;102692.81;4953355;29;20055;-59
2022/10/03 07:28:15;;;;;;;5.68;3.17;;;;;;;12.38;63.36;102699.88;4958425;28;20515;-59
2022/10/03 07:30:59;;;;;;;9.35;2.95;;;;;;;12.37;63.73;102704.44;4980667;28;20050;-59
2022/10/03 07:33:46;;;;;;;9.07;3.15;;;;;;;12.38;63.79;102703.41;4998360;28;20053;-59
2022/10/03 07:39:56;;;;;;;9.15;2.95;;;;;;;12.41;63.57;102704.06;5009363;28;20055;-59
2022/10/03 07:42:51;;;;;;;7.65;3.38;;;;;;;12.42;63.65;102705.75;5002405;28;20049;-60
2022/10/03 07:45:33;;;;;;;8.63;3.50;;;;;;;12.43;64.05;102713.66;4994416;28;20125;-59
2022/10/03 07:48:16;;;;;;;7.10;3.08;;;;;;;12.46;63.59;102710.56;5027614;28;20044;-59
2022/10/03 07:51:12;;;;;;;8.25;3.20;;;;;;;12.60;63.54;102709.72;4723017;28;10001380;-59
2022/10/03 07:54:06;;;;;;;8.00;2.70;;;;;;;12.77;63.34;102718.41;5075947;28;20087;-60
2022/10/03 07:57:06;;;;;;;6.78;3.33;;;;;;;12.98;63.02;102717.59;5074132;28;20055;-60
2022/10/03 08:00:21;;;;;;;7.47;3.67;;;;;;;13.24;61.70;102725.16;5075565;28;20262;-59
2022/10/03 08:03:22;;;;;;;9.07;3.28;;;;;;;13.43;61.60;102721.78;5072892;28;20044;-60
2022/10/03 08:06:25;;;;;;;11.68;3.53;;;;;;;13.63;61.40;102713.84;5063655;28;20056;-60
2022/10/03 08:09:36;;;;;;;11.20;3.80;;;;;;;13.90;60.99;102721.06;5069564;28;20156;-61
2022/10/03 08:12:41;;;;;;;6.07;3.15;;;;;;;13.93;60.48;102725.25;5077315;28;20064;-60
2022/10/03 08:15:19;;;;;;;13.20;4.03;;;;;;;13.83;60.58;102722.94;5066167;28;20087;-60
2022/10/03 08:18:33;;;;;;;8.15;3.45;;;;;;;13.67;61.89;102724.06;5079341;28;20116;-60
2022/10/03 08:21:01;;;;;;;12.25;3.85;;;;;;;13.49;62.52;102722.88;5034303;28;20132;-60
2022/10/03 08:23:54;;;;;;;9.32;2.97;;;;;;;13.37;62.07;102722.56;5036873;28;20059;-60
2022/10/03 08:26:33;;;;;;;7.85;3.55;;;;;;;13.20;62.98;102705.81;5031439;28;20053;-60
2022/10/03 08:29:40;;;;;;;8.90;2.90;;;;;;;13.27;62.87;102719.38;5035457;28;20053;-60
2022/10/03 08:32:39;;;;;;;9.63;4.07;;;;;;;13.22;63.25;102711.84;5016452;28;20192;-60
2022/10/03 08:35:30;;;;;;;7.20;2.78;;;;;;;13.20;63.11;102719.31;5030365;28;20161;-60
2022/10/03 08:38:32;;;;;;;9.13;3.25;;;;;;;13.18;64.15;102726.75;5033569;28;20065;-61
2022/10/03 08:41:37;;;;;;;9.55;3.20;;;;;;;13.15;64.36;102720.88;5033278;28;20525;-61
2022/10/03 08:44:36;;;;;;;12.13;3.47;;;;;;;13.13;63.60;102728.34;5029879;28;20124;-60
2022/10/03 08:47:30;;;;;;;7.78;2.80;;;;;;;13.10;63.41;102726.00;5033865;28;20061;-60
2022/10/03 08:50:31;;;;;;;4.50;2.22;;;;;;;13.09;63.88;102722.47;5008652;28;20506;-61
2022/10/03 08:53:27;;;;;;;4.55;2.58;;;;;;;13.09;63.77;102725.19;5034605;28;20049;-60
2022/10/03 08:56:04;;;;;;;9.80;3.70;;;;;;;13.09;64.18;102729.75;5039736;28;20056;-61
2022/10/03 08:59:12;;;;;;;10.32;4.10;;;;;;;13.10;65.64;102720.63;5080680;28;20064;-59
2022/10/03 09:02:03;;;;;;;11.18;4.22;;;;;;;13.11;65.27;102733.09;5078819;28;20048;-60
2022/10/03 09:05:13;;;;;;;6.72;2.90;;;;;;;13.11;65.33;102739.31;5081772;28;20071;-60
2022/10/03 09:08:18;;;;;;;8.35;3.58;;;;;;;13.12;66.37;102738.28;5075661;28;20058;-60
2022/10/03 09:11:13;;;;;;;10.25;3.13;;;;;;;13.11;65.74;102730.38;5082941;28;20063;-60
2022/10/03 09:14:28;;;;;;;9.77;4.03;;;;;;;13.12;66.60;102735.59;5078701;28;20054;-60
2022/10/03 09:17:14;;;;;;;10.75;3.40;;;;;;;13.11;66.26;102733.09;5060078;28;20057;-60
2022/10/03 09:20:04;;;;;;;7.80;3.15;;;;;;;13.15;66.35;102737.91;5049517;28;20045;-60
2022/10/03 09:22:53;;;;;;;12.00;3.55;;;;;;;13.08;66.28;102719.97;5056932;28;20087;-60
2022/10/03 09:25:39;;;;;;;8.90;3.40;;;;;;;13.17;66.19;102726.94;5060450;28;20052;-60
2022/10/03 09:28:41;;;;;;;9.68;4.22;;;;;;;13.17;65.59;102727.78;5056923;28;20053;-59
2022/10/03 09:31:25;;;;;;;8.43;2.80;;;;;;;13.18;66.40;102724.06;5059508;28;20052;-60
2022/10/03 09:34:31;;;;;;;7.05;2.70;;;;;;;13.24;66.11;102725.97;5048903;28;20096;-60
2022/10/03 09:37:37;;;;;;;8.60;2.83;;;;;;;13.30;66.30;102717.09;5058973;28;20057;-60
2022/10/03 09:40:33;;;;;;;11.63;3.30;;;;;;;13.37;66.73;102713.63;5051595;28;20136;-60
2022/10/03 09:43:25;;;;;;;6.25;2.30;;;;;;;13.41;66.36;102709.50;5053891;28;20076;-60
2022/10/03 09:46:32;;;;;;;10.10;3.47;;;;;;;13.44;66.88;102703.72;5058370;28;20108;-60
2022/10/03 09:49:36;;;;;;;8.70;3.03;;;;;;;13.46;66.21;102702.50;5033551;28;20200;-60
2022/10/03 09:52:26;;;;;;;9.88;2.50;;;;;;;13.43;66.21;102688.53;4997958;28;20203;-60
2022/10/03 09:55:30;;;;;;;8.77;3.38;;;;;;;13.50;66.44;102701.06;5038427;28;20054;-60
2022/10/03 09:58:24;;;;;;;7.25;2.58;;;;;;;13.45;66.80;102689.19;5027674;28;20068;-60
2022/10/03 10:01:13;;;;;;;7.00;2.40;;;;;;;13.59;66.64;102693.66;5042579;28;20064;-60
2022/10/03 10:04:14;;;;;;;9.88;2.58;;;;;;;13.63;66.88;102689.53;5039782;28;20046;-61
2022/10/03 10:07:17;;;;;;;7.22;2.20;;;;;;;13.69;66.62;102699.56;5030637;28;20055;-61
2022/10/03 10:10:19;;;;;;;7.22;2.30;;;;;;;13.71;66.97;102692.09;5039414;28;20061;-60
2022/10/03 10:13:26;;;;;;;8.18;3.22;;;;;;;13.75;66.67;102692.53;5039412;28;20055;-60
2022/10/03 10:16:29;;;;;;;6.40;2.42;;;;;;;13.75;66.78;102687.13;5035555;28;20069;-60
2022/10/03 10:19:41;;;;;;;10.13;2.53;;;;;;;13.76;66.88;102686.91;5042056;28;20219;-60
2022/10/03 10:22:46;;;;;;;8.13;2.38;;;;;;;13.77;67.08;102693.16;4964915;29;20055;-60
2022/10/03 10:25:49;;;;;;;10.10;2.90;;;;;;;13.81;67.52;102691.72;4958953;29;20051;-60
2022/10/03 10:28:43;;;;;;;7.50;2.35;;;;;;;13.80;67.54;102695.47;5000742;28;20104;-61
2022/10/03 10:31:51;;;;;;;7.57;1.98;;;;;;;13.78;67.16;102697.53;5018747;28;20085;-60
2022/10/03 10:35:07;;;;;;;8.52;2.58;;;;;;;13.82;66.94;102696.09;5016004;28;20295;-61
2022/10/03 10:38:21;;;;;;;10.73;2.53;;;;;;;13.87;67.05;102693.59;5000169;28;20211;-61
2022/10/03 10:41:18;;;;;;;6.07;2.08;;;;;;;13.87;67.06;102690.91;4934502;29;20055;-61
2022/10/03 10:44:26;;;;;;;10.00;2.53;;;;;;;13.87;67.27;102683.63;4943956;29;20423;-61
2022/10/03 10:47:32;;;;;;;5.93;2.33;;;;;;;13.81;67.19;102670.94;4923627;29;20051;-60
2022/10/03 10:50:34;;;;;;;8.48;2.15;;;;;;;13.93;67.21;102684.72;4941957;29;20048;-60
2022/10/03 10:53:39;;;;;;;10.40;3.45;;;;;;;13.93;67.36;102690.94;4931292;29;20052;-60
2022/10/03 10:57:00;;;;;;;8.70;2.28;;;;;;;13.95;67.67;102685.34;4976495;28;20058;-59
2022/10/03 11:00:06;;;;;;;4.57;2.47;;;;;;;13.98;67.51;102695.75;5016431;28;20052;-60
2022/10/03 11:03:10;;;;;;;7.88;2.60;;;;;;;14.01;67.37;102692.66;5015231;28;20390;-60
2022/10/03 11:06:26;;;;;;;11.43;2.72;;;;;;;14.01;67.03;102688.09;5017848;28;20050;-60
2022/10/03 11:09:38;;;;;;;5.57;2.00;;;;;;;14.02;66.95;102692.47;5015024;28;20068;-60
2022/10/03 11:12:39;;;;;;;8.73;2.28;;;;;;;13.96;66.67;102678.91;5029818;28;20053;-60
2022/10/03 11:15:46;;;;;;;8.27;2.53;;;;;;;14.06;66.69;102698.28;5063371;28;20108;-58
2022/10/03 11:19:18;;;;;;;4.53;1.80;;;;;;;14.07;66.21;102691.03;5077861;28;20496;-60
2022/10/03 11:22:35;;;;;;;13.90;3.20;;;;;;;14.09;65.92;102681.69;5052593;28;20048;-57
2022/10/03 11:25:54;;;;;;;8.90;2.45;;;;;;;14.10;65.52;102680.63;5049068;28;20048;-62
2022/10/03 11:28:41;;;;;;;;;;;;;;;14.13;65.57;102679.41;5054034;28;20049;-60
2022/10/03 11:31:49;;;;;;;7.70;2.38;;;;;;;14.15;64.95;102677.34;5057114;28;19931;-60
2022/10/03 11:35:01;;;;;;;8.35;2.20;;;;;;;14.18;64.98;102669.66;5055726;28;20044;-60
2022/10/03 11:37:43;;;;;;;7.03;2.38;;;;;;;14.15;64.87;102664.66;5056018;28;20055;-60
2022/10/03 11:40:32;;;;;;;9.30;1.80;;;;;;;14.23;65.06;102667.19;5054965;28;20052;-62
2022/10/03 11:43:35;;;;;;;9.90;2.33;;;;;;;14.26;65.29;102671.34;5045283;28;20120;-60
2022/10/03 11:46:21;;;;;;;6.30;1.60;;;;;;;14.29;65.52;102668.25;5048118;28;20054;-59
2022/10/03 11:48:56;;;;;;;4.05;1.55;;;;;;;14.34;66.01;102668.47;5052432;28;20056;-61
2022/10/03 11:51:42;;;;;;;5.80;1.50;;;;;;;14.39;66.56;102670.56;5053808;28;20044;-60
2022/10/03 11:54:26;;;;;;;6.60;1.35;;;;;;;14.42;66.13;102671.03;5078562;28;20047;-62
2022/10/03 11:57:08;;;;;;;5.78;1.80;;;;;;;14.45;65.61;102669.78;5075033;28;20052;-61
2022/10/03 11:59:58;;;;;;;4.43;1.55;;;;;;;14.49;65.35;102666.47;5070476;28;20066;-61
2022/10/03 12:02:55;;;;;;;5.90;1.90;;;;;;;14.51;65.58;102672.53;5075461;28;20053;-61
2022/10/03 12:05:34;;;;;;;6.93;1.93;;;;;;;14.54;65.07;102672.13;5073209;28;20041;-61
2022/10/03 12:11:14;;;;;;;6.47;1.60;;;;;;;14.59;64.95;102672.34;5068576;28;20513;-60
2022/10/03 12:14:01;;;;;;;10.35;1.80;;;;;;;14.61;65.06;102664.03;5079699;28;20075;-60
2022/10/03 12:16:52;;;;;;;6.65;2.13;;;;;;;14.65;65.29;102667.97;5079088;28;20131;-61
2022/10/03 12:19:29;;;;;;;5.60;1.65;;;;;;;14.68;65.30;102655.91;5076802;28;20047;-61
2022/10/03 12:22:05;;;;;;;6.40;1.52;;;;;;;14.70;65.26;102662.78;5080081;28;20098;-61
2022/10/03 12:24:36;;;;;;;9.93;1.63;;;;;;;14.73;65.32;102656.97;5077462;28;20045;-60
2022/10/03 12:27:18;;;;;;;7.68;2.50;;;;;;;14.76;64.67;102667.38;5079703;28;20052;-60
2022/10/03 12:29:57;;;;;;;5.40;1.70;;;;;;;14.76;64.67;102659.25;5073586;28;20074;-60
2022/10/03 12:32:48;;;;;;;6.00;1.67;;;;;;;14.78;64.44;102662.59;5077786;28;20058;-60
2022/10/03 12:35:33;;;;;;;7.28;1.80;;;;;;;14.80;65.05;102647.00;5076561;28;20052;-61
2022/10/03 12:38:21;;;;;;;4.93;1.73;;;;;;;14.84;64.42;102660.94;5074041;28;20060;-61
2022/10/03 12:41:00;;;;;;;6.00;1.85;;;;;;;14.84;63.97;102644.69;5076800;28;20063;-61
2022/10/03 12:43:45;;;;;;;7.45;2.13;;;;;;;14.87;63.51;102647.84;5079259;28;20062;-61
2022/10/03 12:46:18;;;;;;;7.82;1.98;;;;;;;14.89;64.12;102636.78;5078745;28;20046;-61
2022/10/03 12:48:54;;;;;;;4.15;1.50;;;;;;;14.92;64.89;102642.63;5075736;28;20513;-61
2022/10/03 12:51:39;;;;;;;3.55;1.25;;;;;;;14.95;64.65;102636.81;5078663;28;20060;-63
2022/10/03 12:54:19;;;;;;;4.22;1.63;;;;;;;14.95;63.36;102636.81;5075277;28;20064;-60
2022/10/03 12:57:12;;;;;;;6.43;1.98;;;;;;;14.98;63.51;102635.56;5076405;28;20052;-61
2022/10/03 12:59:47;;;;;;;6.22;1.70;;;;;;;15.00;63.04;102640.75;5074260;28;20456;-62
2022/10/03 13:02:28;;;;;;;4.35;2.10;;;;;;;15.01;63.58;102640.56;5075419;28;20064;-62
2022/10/03 13:05:23;;;;;;;8.30;1.70;;;;;;;15.00;63.17;102628.06;5075386;28;20048;-64
2022/10/03 13:07:55;;;;;;;8.50;1.58;;;;;;;15.04;63.24;102634.72;5075478;28;20048;-62
2022/10/03 13:10:33;;;;;;;8.27;1.90;;;;;;;15.00;63.86;102625.34;5079470;28;20064;-63
2022/10/03 13:13:18;;;;;;;7.45;1.65;;;;;;;15.08;63.44;102624.31;5078193;28;20041;-62
2022/10/03 13:16:18;;;;;;;5.57;1.73;;;;;;;15.10;64.29;102622.22;5076600;28;20062;-61
2022/10/03 13:18:53;;;;;;;5.25;1.40;;;;;;;15.12;65.06;102618.28;5064387;28;20040;-62
2022/10/03 13:21:33;;;;;;;7.20;1.92;;;;;;;15.14;65.52;102626.19;5076739;28;20054;-62
2022/10/03 13:24:23;;;;;;;7.45;2.20;;;;;;;15.13;63.58;102616.41;5075513;28;20498;-62